createdAt,value
2023-05-16T00:02:06.242Z,7.53
2023-05-16T00:04:33.086Z,8.32
2023-05-16T00:06:59.485Z,6.25
2023-05-16T00:09:25.683Z,5.28
2023-05-16T00:11:51.921Z,5.20
2023-05-16T00:14:19.743Z,6.03
2023-05-16T00:16:47.248Z,6.47
2023-05-16T00:19:13.736Z,8.43
2023-05-16T00:21:39.955Z,5.35
2023-05-16T00:24:06.490Z,7.57
2023-05-16T00:26:32.680Z,5.63
2023-05-16T00:28:58.904Z,5.90
2023-05-16T00:31:25.217Z,6.07
2023-05-16T00:33:51.497Z,5.97
2023-05-16T00:36:17.891Z,7.47
2023-05-16T00:38:44.269Z,5.72
2023-05-16T00:41:10.742Z,6.05
2023-05-16T00:43:36.966Z,6.13
2023-05-16T00:46:03.481Z,5.45
2023-05-16T00:48:29.815Z,7.50
2023-05-16T00:50:56.473Z,6.50
2023-05-16T00:53:23.902Z,6.28
2023-05-16T00:55:50.214Z,9.45
2023-05-16T00:58:16.649Z,8.05
2023-05-16T01:00:42.964Z,7.40
2023-05-16T01:03:09.327Z,6.68
2023-05-16T01:05:35.640Z,6.90
2023-05-16T01:08:01.841Z,7.78
2023-05-16T01:10:32.549Z,7.68
2023-05-16T01:13:06.523Z,7.30
2023-05-16T01:15:35.906Z,7.68
2023-05-16T01:18:19.045Z,7.15
2023-05-16T01:20:49.632Z,6.60
2023-05-16T01:23:19.478Z,6.22
2023-05-16T01:25:45.889Z,6.60
2023-05-16T01:28:13.511Z,5.50
2023-05-16T01:30:41.239Z,5.57
2023-05-16T01:33:08.169Z,7.00
2023-05-16T01:35:38.322Z,9.73
2023-05-16T01:38:04.510Z,10.18
2023-05-16T01:40:36.993Z,9.40
2023-05-16T01:43:05.304Z,10.95
2023-05-16T01:45:32.704Z,8.52
2023-05-16T01:48:04.860Z,10.65
2023-05-16T01:50:33.869Z,7.95
2023-05-16T01:53:01.775Z,10.52
2023-05-16T01:55:31.188Z,9.85
2023-05-16T01:57:58.969Z,11.90
2023-05-16T02:00:25.361Z,8.85
2023-05-16T02:02:51.650Z,12.48
2023-05-16T02:05:17.899Z,8.95
2023-05-16T02:07:44.312Z,8.07
2023-05-16T02:10:10.994Z,8.45
2023-05-16T02:12:37.359Z,6.90
2023-05-16T02:15:03.688Z,8.32
2023-05-16T02:17:30.181Z,6.20
2023-05-16T02:19:56.417Z,5.82
2023-05-16T02:22:22.605Z,5.38
2023-05-16T02:24:48.807Z,7.68
2023-05-16T02:27:14.999Z,8.30
2023-05-16T02:29:41.240Z,9.63
2023-05-16T02:32:07.533Z,12.63
2023-05-16T02:34:33.740Z,13.52
2023-05-16T02:36:59.954Z,13.82
2023-05-16T02:39:26.277Z,10.80
2023-05-16T02:41:52.480Z,13.52
2023-05-16T02:44:18.723Z,14.27
2023-05-16T02:46:45.012Z,12.38
2023-05-16T02:49:11.298Z,14.55
2023-05-16T02:51:37.501Z,15.95
2023-05-16T02:54:03.757Z,14.95
2023-05-16T02:56:29.950Z,14.23
2023-05-16T02:58:56.377Z,15.95
2023-05-16T03:01:22.793Z,16.67
2023-05-16T03:03:49.297Z,14.63
2023-05-16T03:06:16.180Z,16.75
2023-05-16T03:08:42.395Z,13.35
2023-05-16T03:11:08.615Z,17.17
2023-05-16T03:13:34.875Z,18.67
2023-05-16T03:16:01.381Z,17.02
2023-05-16T03:18:27.656Z,16.70
2023-05-16T03:20:54.043Z,16.42
2023-05-16T03:23:20.809Z,17.02
2023-05-16T03:25:47.731Z,18.08
2023-05-16T03:28:15.313Z,13.82
2023-05-16T03:30:42.064Z,15.57
2023-05-16T03:33:08.357Z,13.48
2023-05-16T03:35:35.208Z,16.42
2023-05-16T03:38:01.493Z,14.57
2023-05-16T03:40:27.788Z,12.57
2023-05-16T03:42:54.024Z,14.63
2023-05-16T03:45:20.295Z,14.57
2023-05-16T03:47:46.782Z,13.20
2023-05-16T03:50:13.104Z,14.05
2023-05-16T03:52:39.332Z,13.18
2023-05-16T03:55:05.958Z,16.48
2023-05-16T03:57:32.532Z,15.57
2023-05-16T03:59:58.867Z,13.40
2023-05-16T04:02:25.579Z,19.85
2023-05-16T04:04:51.888Z,15.93
2023-05-16T04:07:18.084Z,15.88
2023-05-16T04:09:45.038Z,17.30
2023-05-16T04:12:11.236Z,13.40
2023-05-16T04:14:38.105Z,15.63
2023-05-16T04:17:04.451Z,14.40
2023-05-16T04:19:31.064Z,13.57
2023-05-16T04:21:57.263Z,16.27
2023-05-16T04:24:26.384Z,15.80
2023-05-16T04:26:52.760Z,13.40
2023-05-16T04:29:19.529Z,21.02
2023-05-16T04:31:45.842Z,16.40
2023-05-16T04:34:13.015Z,17.73
2023-05-16T04:36:39.264Z,22.40
2023-05-16T04:39:06.224Z,18.80
2023-05-16T04:41:33.606Z,21.73
2023-05-16T04:44:01.615Z,20.58
2023-05-16T04:46:27.882Z,19.95
2023-05-16T04:48:54.081Z,17.05
2023-05-16T04:51:20.331Z,13.82
2023-05-16T04:53:46.531Z,14.82
2023-05-16T04:56:12.797Z,16.27
2023-05-16T04:58:41.016Z,14.45
2023-05-16T05:01:08.494Z,12.50
2023-05-16T05:03:34.964Z,12.50
2023-05-16T05:06:01.570Z,14.63
2023-05-16T05:08:28.044Z,15.90
2023-05-16T05:10:55.846Z,19.42
2023-05-16T05:13:22.112Z,15.23
2023-05-16T05:15:50.244Z,14.82
2023-05-16T05:18:16.889Z,16.60
2023-05-16T05:20:43.432Z,15.75
2023-05-16T05:23:09.688Z,12.43
2023-05-16T05:25:37.665Z,14.48
2023-05-16T05:28:04.261Z,13.45
2023-05-16T05:30:30.537Z,9.85
2023-05-16T05:32:56.960Z,13.73
2023-05-16T05:35:23.220Z,11.02
2023-05-16T05:37:49.426Z,12.15
2023-05-16T05:40:16.132Z,14.18
2023-05-16T05:42:44.128Z,10.73
2023-05-16T05:45:11.645Z,16.33
2023-05-16T05:47:38.133Z,10.02
2023-05-16T05:50:04.766Z,16.67
2023-05-16T05:52:30.975Z,11.05
2023-05-16T05:54:59.319Z,10.52
2023-05-16T05:57:26.086Z,9.70
2023-05-16T05:59:52.308Z,11.00
2023-05-16T06:02:18.716Z,15.40
2023-05-16T06:04:45.263Z,11.65
2023-05-16T06:07:11.616Z,11.38
2023-05-16T06:09:37.922Z,12.80
2023-05-16T06:12:04.474Z,7.78
2023-05-16T06:14:30.819Z,12.70
2023-05-16T06:16:57.060Z,12.52
2023-05-16T06:19:23.420Z,14.45
2023-05-16T06:21:49.722Z,10.02
2023-05-16T06:24:16.097Z,7.93
2023-05-16T06:26:42.394Z,10.88
2023-05-16T06:29:08.664Z,6.65
2023-05-16T06:31:34.914Z,7.65
2023-05-16T06:34:01.254Z,6.32
2023-05-16T06:36:27.464Z,8.02
2023-05-16T06:38:53.693Z,8.77
2023-05-16T06:41:19.888Z,6.57
2023-05-16T06:43:46.121Z,5.18
2023-05-16T06:46:12.417Z,10.27
2023-05-16T06:48:38.682Z,9.60
2023-05-16T06:51:05.082Z,8.60
2023-05-16T06:53:31.362Z,10.02
2023-05-16T06:55:57.618Z,7.28
2023-05-16T06:58:23.874Z,8.63
2023-05-16T07:00:50.590Z,7.00
2023-05-16T07:03:16.952Z,12.38
2023-05-16T07:05:43.272Z,10.65
2023-05-16T07:08:13.630Z,10.35
2023-05-16T07:10:39.871Z,9.30
2023-05-16T07:13:06.884Z,8.05
2023-05-16T07:15:33.250Z,8.75
2023-05-16T07:17:59.557Z,11.60
2023-05-16T07:20:25.854Z,10.45
2023-05-16T07:22:52.161Z,13.65
2023-05-16T07:25:18.583Z,14.40
2023-05-16T07:27:45.451Z,12.95
2023-05-16T07:30:12.975Z,10.45
2023-05-16T07:32:39.907Z,12.35
2023-05-16T07:35:06.695Z,9.18
2023-05-16T07:37:32.980Z,9.82
2023-05-16T07:39:59.243Z,9.60
2023-05-16T07:42:25.508Z,18.85
2023-05-16T07:44:51.791Z,12.50
2023-05-16T07:47:18.105Z,11.77
2023-05-16T07:49:44.375Z,10.70
2023-05-16T07:52:10.732Z,10.82
2023-05-16T07:54:37.719Z,9.95
2023-05-16T07:57:04.150Z,9.02
2023-05-16T07:59:30.684Z,10.68
2023-05-16T08:01:57.148Z,9.75
2023-05-16T08:04:23.410Z,10.45
2023-05-16T08:06:49.850Z,10.45
2023-05-16T08:09:16.146Z,15.35
2023-05-16T08:11:45.342Z,12.45
2023-05-16T08:14:11.888Z,8.07
2023-05-16T08:16:38.246Z,9.02
2023-05-16T08:19:04.666Z,12.50
2023-05-16T08:21:31.838Z,16.08
2023-05-16T08:23:58.262Z,10.77
2023-05-16T08:26:24.975Z,9.65
2023-05-16T08:28:51.249Z,10.50
2023-05-16T08:31:17.562Z,11.38
2023-05-16T08:33:43.876Z,8.23
2023-05-16T08:36:10.196Z,10.25
2023-05-16T08:38:36.838Z,7.65
2023-05-16T08:41:03.240Z,7.45
2023-05-16T08:43:29.575Z,9.77
2023-05-16T08:45:57.270Z,10.05
2023-05-16T08:48:24.033Z,8.55
2023-05-16T08:50:50.420Z,5.50
2023-05-16T08:53:20.563Z,10.02
2023-05-16T08:55:48.315Z,8.70
2023-05-16T08:58:14.837Z,6.45
2023-05-16T09:00:41.196Z,5.60
2023-05-16T09:03:07.922Z,6.53
2023-05-16T09:05:34.604Z,5.68
2023-05-16T09:08:00.912Z,5.53
2023-05-16T09:10:27.237Z,6.22
2023-05-16T09:12:53.523Z,4.45
2023-05-16T09:15:21.339Z,5.65
2023-05-16T09:17:47.960Z,5.70
2023-05-16T09:20:16.149Z,7.93
2023-05-16T09:22:58.975Z,6.40
2023-05-16T09:25:31.338Z,7.07
2023-05-16T09:27:59.292Z,7.43
2023-05-16T09:30:30.112Z,7.55
2023-05-16T09:32:56.461Z,6.88
2023-05-16T09:35:35.167Z,7.82
2023-05-16T09:38:18.341Z,6.20
2023-05-16T09:40:45.666Z,9.45
2023-05-16T09:43:14.605Z,7.97
2023-05-16T09:45:45.023Z,6.82
2023-05-16T09:48:15.596Z,6.07
2023-05-16T09:50:46.581Z,3.90
2023-05-16T09:53:13.753Z,7.03
2023-05-16T09:55:39.998Z,5.68
2023-05-16T09:58:06.480Z,4.22
2023-05-16T10:00:33.554Z,5.78
2023-05-16T10:03:03.484Z,5.85
2023-05-16T10:07:57.832Z,6.40
2023-05-16T10:10:24.593Z,5.40
2023-05-16T10:12:51.101Z,4.68
2023-05-16T10:15:17.754Z,5.95
2023-05-16T10:17:45.848Z,6.15
2023-05-16T10:20:12.575Z,4.80
2023-05-16T10:22:42.513Z,6.30
2023-05-16T10:25:14.999Z,5.35
2023-05-16T10:27:42.048Z,4.55
2023-05-16T10:30:13.072Z,4.40
2023-05-16T10:32:41.911Z,3.47
2023-05-16T10:35:09.524Z,4.05
2023-05-16T10:37:36.595Z,4.28
2023-05-16T10:40:05.751Z,4.45
2023-05-16T10:42:32.419Z,6.50
2023-05-16T10:45:17.942Z,4.30
2023-05-16T10:47:57.574Z,4.07
2023-05-16T10:50:43.692Z,10.55
2023-05-16T10:53:16.425Z,2.88
2023-05-16T10:55:51.034Z,5.38
2023-05-16T10:58:24.262Z,5.60
2023-05-16T11:01:10.847Z,6.85
2023-05-16T11:03:37.248Z,5.40
2023-05-16T11:06:04.497Z,5.32
2023-05-16T11:08:33.745Z,2.83
2023-05-16T11:11:40.343Z,5.60
2023-05-16T11:14:06.676Z,3.63
2023-05-16T11:16:33.914Z,4.65
2023-05-16T11:19:04.633Z,6.85
2023-05-16T11:21:49.938Z,2.95
2023-05-16T11:24:29.859Z,7.95
2023-05-16T11:26:56.417Z,4.50
2023-05-16T11:29:25.567Z,4.75
2023-05-16T11:31:52.877Z,4.70
2023-05-16T11:34:19.290Z,4.57
2023-05-16T11:36:46.194Z,6.07
2023-05-16T11:39:12.450Z,4.07
2023-05-16T11:41:38.836Z,4.32
2023-05-16T11:44:06.588Z,5.00
2023-05-16T11:46:33.591Z,4.93
2023-05-16T11:48:59.858Z,5.18
2023-05-16T11:51:26.263Z,5.10
2023-05-16T11:53:53.133Z,5.97
2023-05-16T11:56:21.593Z,3.50
2023-05-16T11:58:48.095Z,11.48
2023-05-16T12:01:14.413Z,5.93
2023-05-16T12:03:40.907Z,6.95
2023-05-16T12:06:07.827Z,3.17
2023-05-16T12:08:34.182Z,11.25
2023-05-16T12:11:00.596Z,2.78
2023-05-16T12:13:27.029Z,5.20
2023-05-16T12:15:53.427Z,4.30
2023-05-16T12:18:21.840Z,4.78
2023-05-16T12:20:48.267Z,11.98
2023-05-16T12:23:14.608Z,5.43
2023-05-16T12:25:46.225Z,2.58
2023-05-16T12:28:13.287Z,3.05
2023-05-16T12:30:43.175Z,2.28
2023-05-16T12:33:10.473Z,5.65
2023-05-16T12:35:40.845Z,2.90
2023-05-16T12:38:10.937Z,1.83
2023-05-16T12:40:37.532Z,5.25
2023-05-16T12:43:03.851Z,2.88
2023-05-16T12:45:30.309Z,3.30
2023-05-16T12:47:56.736Z,4.35
2023-05-16T12:50:23.207Z,2.85
2023-05-16T12:52:50.659Z,5.13
2023-05-16T12:55:20.976Z,3.88
2023-05-16T12:57:48.076Z,2.45
2023-05-16T13:00:15.704Z,4.05
2023-05-16T13:02:42.369Z,2.55
2023-05-16T13:05:09.222Z,3.88
2023-05-16T13:07:35.804Z,3.83
2023-05-16T13:10:02.178Z,3.25
2023-05-16T13:12:28.547Z,3.88
2023-05-16T13:14:54.812Z,3.22
2023-05-16T13:17:21.071Z,2.47
2023-05-16T13:19:48.920Z,2.45
2023-05-16T13:22:15.517Z,1.98
2023-05-16T13:24:41.813Z,3.33
2023-05-16T13:27:08.070Z,1.88
2023-05-16T13:29:34.329Z,2.13
2023-05-16T13:32:00.683Z,1.83
2023-05-16T13:34:27.133Z,3.90
2023-05-16T13:36:54.946Z,1.58
2023-05-16T13:39:22.158Z,1.77
2023-05-16T13:41:49.109Z,3.35
2023-05-16T13:44:16.102Z,1.75
2023-05-16T13:46:42.352Z,3.53
2023-05-16T13:49:08.589Z,4.63
2023-05-16T13:51:34.867Z,1.83
2023-05-16T13:54:01.144Z,1.95
2023-05-16T13:56:27.393Z,1.80
2023-05-16T13:59:03.931Z,1.67
2023-05-16T14:01:33.079Z,2.33
2023-05-16T14:03:59.552Z,2.20
2023-05-16T14:06:25.940Z,3.47
2023-05-16T14:08:52.202Z,2.10
2023-05-16T14:11:19.823Z,2.92
2023-05-16T14:13:46.481Z,1.98
2023-05-16T14:16:12.977Z,2.35
2023-05-16T14:18:39.323Z,1.70
2023-05-16T14:21:05.751Z,3.45
2023-05-16T14:23:31.992Z,3.33
2023-05-16T14:25:58.220Z,3.83
2023-05-16T14:28:24.465Z,1.42
2023-05-16T14:30:50.755Z,1.63
2023-05-16T14:33:17.070Z,2.00
2023-05-16T14:35:43.402Z,2.38
2023-05-16T14:38:10.048Z,7.93
2023-05-16T14:40:36.346Z,3.30
2023-05-16T14:43:04.355Z,3.83
2023-05-16T14:45:30.828Z,3.60
2023-05-16T14:47:57.195Z,2.42
2023-05-16T14:50:25.622Z,2.00
2023-05-16T14:52:52.985Z,3.70
2023-05-16T14:55:19.456Z,2.50
2023-05-16T14:57:46.206Z,2.22
2023-05-16T15:00:15.402Z,2.15
2023-05-16T15:02:41.693Z,2.80
2023-05-16T15:05:08.255Z,2.95
2023-05-16T15:07:34.888Z,4.18
2023-05-16T15:10:01.843Z,3.75
2023-05-16T15:12:28.077Z,4.07
2023-05-16T15:14:54.328Z,3.10
2023-05-16T15:17:20.681Z,4.57
2023-05-16T15:19:48.864Z,3.83
2023-05-16T15:22:15.096Z,4.57
2023-05-16T15:24:41.531Z,2.17
2023-05-16T15:27:07.860Z,3.97
2023-05-16T15:29:34.119Z,3.40
2023-05-16T15:32:03.418Z,5.53
2023-05-16T15:34:29.718Z,4.28
2023-05-16T15:36:55.978Z,2.45
2023-05-16T15:39:22.255Z,4.35
2023-05-16T15:42:08.538Z,6.60
2023-05-16T15:44:35.078Z,3.20
2023-05-16T15:47:01.617Z,6.45
2023-05-16T15:49:27.874Z,4.53
2023-05-16T15:51:54.375Z,5.65
2023-05-16T15:54:20.999Z,3.92
2023-05-16T15:56:47.427Z,5.72
2023-05-16T15:59:13.715Z,4.50
2023-05-16T16:01:40.002Z,4.25
2023-05-16T16:04:06.814Z,3.58
2023-05-16T16:06:33.218Z,3.45
2023-05-16T16:08:59.560Z,4.22
2023-05-16T16:11:26.531Z,5.13
2023-05-16T16:13:52.788Z,3.95
2023-05-16T16:16:19.127Z,2.92
2023-05-16T16:18:45.639Z,4.55
2023-05-16T16:21:12.319Z,3.55
2023-05-16T16:23:39.008Z,4.25
2023-05-16T16:26:06.038Z,4.00
2023-05-16T16:28:32.416Z,3.65
2023-05-16T16:30:58.731Z,3.70
2023-05-16T16:33:25.104Z,3.80
2023-05-16T16:35:57.501Z,4.28
2023-05-16T16:38:23.764Z,3.40
2023-05-16T16:40:50.008Z,3.58
2023-05-16T16:43:16.263Z,4.47
2023-05-16T16:45:42.487Z,2.90
2023-05-16T16:48:11.626Z,3.35
2023-05-16T16:50:37.940Z,3.20
2023-05-16T16:53:05.179Z,7.00
2023-05-16T16:55:31.577Z,5.13
2023-05-16T16:57:57.862Z,2.78
2023-05-16T17:00:24.422Z,5.80
2023-05-16T17:02:50.831Z,4.50
2023-05-16T17:05:17.158Z,4.43
2023-05-16T17:07:43.769Z,7.03
2023-05-16T17:10:10.178Z,4.28
2023-05-16T17:12:40.583Z,5.85
2023-05-16T17:15:07.341Z,4.72
2023-05-16T17:17:33.909Z,4.65
2023-05-16T17:20:00.556Z,6.57
2023-05-16T17:22:27.155Z,6.07
2023-05-16T17:24:53.728Z,7.85
2023-05-16T17:27:20.059Z,5.40
2023-05-16T17:29:46.290Z,3.42
2023-05-16T17:32:12.537Z,3.22
2023-05-16T17:34:38.878Z,3.60
2023-05-16T17:37:06.656Z,6.13
2023-05-16T17:39:33.656Z,5.47
2023-05-16T17:41:59.971Z,4.45
2023-05-16T17:44:26.263Z,4.15
2023-05-16T17:46:53.620Z,3.38
2023-05-16T17:49:21.318Z,6.03
2023-05-16T17:51:54.662Z,7.50
2023-05-16T17:54:22.398Z,5.40
2023-05-16T17:56:50.145Z,5.50
2023-05-16T17:59:16.485Z,4.95
2023-05-16T18:01:43.411Z,6.18
2023-05-16T18:04:09.858Z,5.07
2023-05-16T18:06:39.208Z,3.97
2023-05-16T18:09:10.380Z,5.95
2023-05-16T18:11:38.659Z,6.25
2023-05-16T18:14:05.011Z,3.08
2023-05-16T18:16:31.464Z,4.63
2023-05-16T18:18:58.065Z,8.13
2023-05-16T18:21:24.583Z,4.32
2023-05-16T18:23:50.967Z,5.30
2023-05-16T18:26:17.834Z,4.85
2023-05-16T18:28:44.234Z,9.32
2023-05-16T18:31:10.920Z,15.82
2023-05-16T18:33:37.259Z,14.23
2023-05-16T18:36:04.528Z,9.80
2023-05-16T18:38:33.205Z,7.60
2023-05-16T18:41:00.126Z,6.05
2023-05-16T18:43:26.474Z,9.20
2023-05-16T18:45:52.823Z,5.15
2023-05-16T18:48:19.423Z,4.70
2023-05-16T18:50:45.893Z,4.15
2023-05-16T18:53:12.140Z,4.93
2023-05-16T18:55:38.464Z,6.28
2023-05-16T18:58:04.803Z,6.57
2023-05-16T19:00:31.620Z,7.50
2023-05-16T19:02:58.058Z,3.92
2023-05-16T19:05:24.566Z,5.75
2023-05-16T19:07:50.976Z,5.85
2023-05-16T19:10:17.343Z,4.10
2023-05-16T19:12:46.631Z,4.40
2023-05-16T19:15:12.890Z,4.53
2023-05-16T19:17:41.498Z,3.53
2023-05-16T19:20:09.274Z,7.65
2023-05-16T19:22:35.985Z,4.82
2023-05-16T19:25:05.077Z,4.65
2023-05-16T19:27:31.517Z,3.85
2023-05-16T19:29:57.805Z,4.45
2023-05-16T19:32:24.160Z,4.20
2023-05-16T19:34:50.496Z,4.65
2023-05-16T19:37:16.824Z,5.07
2023-05-16T19:39:43.056Z,6.00
2023-05-16T19:42:09.317Z,3.78
2023-05-16T19:44:35.713Z,2.78
2023-05-16T19:47:01.956Z,8.18
2023-05-16T19:49:28.953Z,4.85
2023-05-16T19:51:55.439Z,4.95
2023-05-16T19:54:21.735Z,5.80
2023-05-16T19:56:48.001Z,3.38
2023-05-16T19:59:14.262Z,4.95
2023-05-16T20:04:07.330Z,6.47
2023-05-16T20:06:33.756Z,5.25
2023-05-16T20:09:00.019Z,2.58
2023-05-16T20:11:26.436Z,6.78
2023-05-16T20:13:55.473Z,6.10
2023-05-16T20:16:21.804Z,4.50
2023-05-16T20:18:48.227Z,3.67
2023-05-16T20:21:14.610Z,5.20
2023-05-16T20:23:40.991Z,5.68
2023-05-16T20:26:07.295Z,3.15
2023-05-16T20:28:33.547Z,3.42
2023-05-16T20:30:59.865Z,6.05
2023-05-16T20:33:26.356Z,4.63
2023-05-16T20:35:52.740Z,3.10
2023-05-16T20:38:19.078Z,7.70
2023-05-16T20:40:47.352Z,4.35
2023-05-16T20:43:13.595Z,8.27
2023-05-16T20:45:39.847Z,5.53
2023-05-16T20:48:06.226Z,7.28
2023-05-16T20:50:35.886Z,4.60
2023-05-16T20:53:02.750Z,4.60
2023-05-16T20:55:29.211Z,4.97
2023-05-16T20:57:55.760Z,5.18
2023-05-16T21:00:22.006Z,4.13
2023-05-16T21:02:48.311Z,3.33
2023-05-16T21:05:34.661Z,3.92
2023-05-16T21:08:01.191Z,6.43
2023-05-16T21:10:27.781Z,4.60
2023-05-16T21:12:54.044Z,6.95
2023-05-16T21:15:25.167Z,6.70
2023-05-16T21:17:51.547Z,5.85
2023-05-16T21:20:17.960Z,3.42
2023-05-16T21:22:44.218Z,7.75
2023-05-16T21:25:10.567Z,5.57
2023-05-16T21:27:36.968Z,3.97
2023-05-16T21:30:03.914Z,6.38
2023-05-16T21:32:32.367Z,5.50
2023-05-16T21:35:00.896Z,6.75
2023-05-16T21:37:27.159Z,7.28
2023-05-16T21:39:53.462Z,4.70
2023-05-16T21:42:21.014Z,2.63
2023-05-16T21:44:47.262Z,5.78
2023-05-16T21:47:13.522Z,5.55
2023-05-16T21:49:39.865Z,5.88
2023-05-16T21:52:07.299Z,5.32
2023-05-16T21:54:34.097Z,5.65
2023-05-16T21:57:00.556Z,6.68
2023-05-16T21:59:26.812Z,4.88
2023-05-16T22:01:53.111Z,6.15
2023-05-16T22:04:19.519Z,6.15
2023-05-16T22:06:45.807Z,4.57
2023-05-16T22:09:12.346Z,7.78
2023-05-16T22:11:38.593Z,5.00
2023-05-16T22:14:04.865Z,6.45
2023-05-16T22:16:31.174Z,4.32
2023-05-16T22:18:57.600Z,5.72
2023-05-16T22:21:24.015Z,4.60
2023-05-16T22:23:50.385Z,5.40
2023-05-16T22:26:16.699Z,7.60
2023-05-16T22:28:43.017Z,4.22
2023-05-16T22:31:09.364Z,7.03
2023-05-16T22:33:35.791Z,4.28
2023-05-16T22:36:03.158Z,5.30
2023-05-16T22:38:29.411Z,3.35
2023-05-16T22:40:55.801Z,6.90
2023-05-16T22:43:22.059Z,4.20
2023-05-16T22:45:51.254Z,5.30
2023-05-16T22:48:17.623Z,5.95
2023-05-16T22:50:43.961Z,2.53
2023-05-16T22:53:10.214Z,5.95
2023-05-16T22:55:36.448Z,4.38
2023-05-16T22:58:02.759Z,4.15
2023-05-16T23:00:29.009Z,3.42
2023-05-16T23:02:55.357Z,4.70
2023-05-16T23:05:21.700Z,4.25
2023-05-16T23:07:47.979Z,4.10
2023-05-16T23:10:14.281Z,5.53
2023-05-16T23:12:40.633Z,4.40
2023-05-16T23:15:09.939Z,4.03
2023-05-16T23:17:37.462Z,5.15
2023-05-16T23:20:04.751Z,6.07
2023-05-16T23:22:31.296Z,5.30
2023-05-16T23:24:57.586Z,3.90
2023-05-16T23:27:23.906Z,4.90
2023-05-16T23:29:50.304Z,3.35
2023-05-16T23:32:16.732Z,5.63
2023-05-16T23:34:43.074Z,4.80
2023-05-16T23:37:09.320Z,6.75
2023-05-16T23:39:36.181Z,5.40
2023-05-16T23:42:02.569Z,4.93
2023-05-16T23:44:28.887Z,4.57
2023-05-16T23:46:55.356Z,3.97
2023-05-16T23:49:21.622Z,3.80
2023-05-16T23:51:57.500Z,5.30
2023-05-16T23:54:24.099Z,2.72
2023-05-16T23:56:50.857Z,3.97
2023-05-16T23:59:18.770Z,2.97
